TAF KGFL
KGFL 072345Z 0800/0824 25005KT P6SM BKN250 FM081100 00000KT P6SM OVC035 FM081200 00000KT P6SM BKN025 FM081400 VRB03KT P6SM BKN015 OVC025 FM081700 VRB03KT 2SM -SN BKN020 OVC025 PROB30 0817/0821 1SM -SN OVC007 FM082100 00000KT P6SM BKN020 OVC025=
METAR KGFL
WC KGFL
WS KGFL
WV KGFL